sensor_id;sensor_type;location;lat;lon;timestamp;temperature;humidity
66827;DHT22;53727;45.242;19.796;2022-11-15T00:17:21;256.10;2252.80
66827;DHT22;53727;45.242;19.796;2022-11-15T00:19:47;256.00;2252.80
66827;DHT22;53727;45.242;19.796;2022-11-15T00:22:13;231.10;2252.80
66827;DHT22;53727;45.242;19.796;2022-11-15T00:24:38;231.20;2252.80
66827;DHT22;53727;45.242;19.796;2022-11-15T00:27:04;231.10;2252.80
66827;DHT22;53727;45.242;19.796;2022-11-15T00:29:30;231.10;2252.80
66827;DHT22;53727;45.242;19.796;2022-11-15T00:41:39;231.10;2252.80
66827;DHT22;53727;45.242;19.796;2022-11-15T00:44:05;230.80;2252.80
66827;DHT22;53727;45.242;19.796;2022-11-15T00:46:31;230.70;2252.80
66827;DHT22;53727;45.242;19.796;2022-11-15T00:48:56;230.60;2252.80
66827;DHT22;53727;45.242;19.796;2022-11-15T00:51:22;230.60;2252.80
66827;DHT22;53727;45.242;19.796;2022-11-15T00:53:48;230.70;2252.80
66827;DHT22;53727;45.242;19.796;2022-11-15T00:56:13;230.70;2252.80
66827;DHT22;53727;45.242;19.796;2022-11-15T00:58:39;230.80;2252.80
66827;DHT22;53727;45.242;19.796;2022-11-15T01:01:10;230.80;2252.80
66827;DHT22;53727;45.242;19.796;2022-11-15T01:03:36;230.80;2252.80
66827;DHT22;53727;45.242;19.796;2022-11-15T01:06:03;230.70;2252.80
66827;DHT22;53727;45.242;19.796;2022-11-15T01:08:29;230.70;2252.80
66827;DHT22;53727;45.242;19.796;2022-11-15T01:10:59;230.70;2252.80
66827;DHT22;53727;45.242;19.796;2022-11-15T01:13:25;230.70;2252.80
66827;DHT22;53727;45.242;19.796;2022-11-15T01:15:50;230.70;2252.80
66827;DHT22;53727;45.242;19.796;2022-11-15T01:18:16;230.80;2252.80
66827;DHT22;53727;45.242;19.796;2022-11-15T01:20:42;230.70;2252.80
66827;DHT22;53727;45.242;19.796;2022-11-15T01:23:09;230.70;2252.80
66827;DHT22;53727;45.242;19.796;2022-11-15T01:25:34;230.80;2252.80
66827;DHT22;53727;45.242;19.796;2022-11-15T01:28:00;230.80;2252.80
66827;DHT22;53727;45.242;19.796;2022-11-15T01:30:26;230.80;2252.80
66827;DHT22;53727;45.242;19.796;2022-11-15T01:32:51;230.90;2252.80
66827;DHT22;53727;45.242;19.796;2022-11-15T01:35:17;231.00;2252.80
66827;DHT22;53727;45.242;19.796;2022-11-15T01:37:43;231.10;2252.80
66827;DHT22;53727;45.242;19.796;2022-11-15T01:40:09;231.20;2252.80
66827;DHT22;53727;45.242;19.796;2022-11-15T01:42:34;231.30;2252.80
66827;DHT22;53727;45.242;19.796;2022-11-15T01:45:00;231.30;2252.80
66827;DHT22;53727;45.242;19.796;2022-11-15T01:47:38;256.10;2252.80
66827;DHT22;53727;45.242;19.796;2022-11-15T01:50:08;256.10;2252.80
66827;DHT22;53727;45.242;19.796;2022-11-15T01:52:36;256.10;2252.80
66827;DHT22;53727;45.242;19.796;2022-11-15T01:55:11;256.30;2252.80
66827;DHT22;53727;45.242;19.796;2022-11-15T01:57:40;256.20;2252.80
66827;DHT22;53727;45.242;19.796;2022-11-15T02:00:07;256.20;2252.80
66827;DHT22;53727;45.242;19.796;2022-11-15T02:02:33;256.30;2252.80
66827;DHT22;53727;45.242;19.796;2022-11-15T02:05:01;256.30;2252.80
66827;DHT22;53727;45.242;19.796;2022-11-15T02:07:28;256.30;2252.80
66827;DHT22;53727;45.242;19.796;2022-11-15T02:09:55;256.40;2252.80
66827;DHT22;53727;45.242;19.796;2022-11-15T02:12:23;256.40;2252.80
66827;DHT22;53727;45.242;19.796;2022-11-15T02:14:53;256.30;2252.80
66827;DHT22;53727;45.242;19.796;2022-11-15T02:17:34;256.30;2252.80
66827;DHT22;53727;45.242;19.796;2022-11-15T02:26:26;256.40;2252.80
66827;DHT22;53727;45.242;19.796;2022-11-15T02:33:52;256.60;2252.80
66827;DHT22;53727;45.242;19.796;2022-11-15T02:42:02;256.50;2252.80
66827;DHT22;53727;45.242;19.796;2022-11-15T02:44:33;256.50;2252.80
66827;DHT22;53727;45.242;19.796;2022-11-15T02:47:04;256.50;2252.80
66827;DHT22;53727;45.242;19.796;2022-11-15T02:49:51;256.40;2252.80
66827;DHT22;53727;45.242;19.796;2022-11-15T02:52:20;256.20;2252.80
66827;DHT22;53727;45.242;19.796;2022-11-15T02:54:59;256.00;2252.80
66827;DHT22;53727;45.242;19.796;2022-11-15T03:00:04;256.00;2252.80
66827;DHT22;53727;45.242;19.796;2022-11-15T03:07:53;231.10;2252.80
66827;DHT22;53727;45.242;19.796;2022-11-15T03:10:29;231.20;2252.80
66827;DHT22;53727;45.242;19.796;2022-11-15T03:15:52;231.20;2252.80
66827;DHT22;53727;45.242;19.796;2022-11-15T03:18:40;231.10;2252.80
66827;DHT22;53727;45.242;19.796;2022-11-15T03:21:08;231.20;2252.80
66827;DHT22;53727;45.242;19.796;2022-11-15T03:23:36;231.20;2252.80
66827;DHT22;53727;45.242;19.796;2022-11-15T03:26:07;231.10;2252.80
66827;DHT22;53727;45.242;19.796;2022-11-15T03:28:38;231.10;2252.80
66827;DHT22;53727;45.242;19.796;2022-11-15T03:31:05;231.00;2252.80
66827;DHT22;53727;45.242;19.796;2022-11-15T03:33:53;231.00;2252.80
66827;DHT22;53727;45.242;19.796;2022-11-15T03:36:22;230.90;2252.80
66827;DHT22;53727;45.242;19.796;2022-11-15T03:38:48;230.80;2252.80
66827;DHT22;53727;45.242;19.796;2022-11-15T03:41:29;230.70;2252.80
66827;DHT22;53727;45.242;19.796;2022-11-15T03:46:38;230.60;2252.80
66827;DHT22;53727;45.242;19.796;2022-11-15T03:49:28;230.50;2252.80
66827;DHT22;53727;45.242;19.796;2022-11-15T03:51:57;230.40;2252.80
66827;DHT22;53727;45.242;19.796;2022-11-15T03:54:23;230.40;2252.80
66827;DHT22;53727;45.242;19.796;2022-11-15T03:56:49;205.60;2252.80
66827;DHT22;53727;45.242;19.796;2022-11-15T03:59:14;205.50;2252.80
66827;DHT22;53727;45.242;19.796;2022-11-15T04:01:40;205.50;2252.80
66827;DHT22;53727;45.242;19.796;2022-11-15T04:04:06;205.40;2252.80
66827;DHT22;53727;45.242;19.796;2022-11-15T04:06:32;205.30;2252.80
66827;DHT22;53727;45.242;19.796;2022-11-15T04:08:57;205.30;2252.80
66827;DHT22;53727;45.242;19.796;2022-11-15T04:11:23;205.30;2252.80
66827;DHT22;53727;45.242;19.796;2022-11-15T04:13:49;205.20;2252.80
66827;DHT22;53727;45.242;19.796;2022-11-15T04:16:14;205.30;2252.80
66827;DHT22;53727;45.242;19.796;2022-11-15T04:18:40;205.20;2252.80
66827;DHT22;53727;45.242;19.796;2022-11-15T04:21:07;205.20;2252.80
66827;DHT22;53727;45.242;19.796;2022-11-15T04:23:51;205.20;2252.80
66827;DHT22;53727;45.242;19.796;2022-11-15T04:26:22;205.30;2252.80
66827;DHT22;53727;45.242;19.796;2022-11-15T04:28:48;205.30;2252.80
66827;DHT22;53727;45.242;19.796;2022-11-15T04:31:32;205.40;2252.80
66827;DHT22;53727;45.242;19.796;2022-11-15T04:33:58;205.60;2252.80
66827;DHT22;53727;45.242;19.796;2022-11-15T04:36:24;205.70;2252.80
66827;DHT22;53727;45.242;19.796;2022-11-15T04:39:08;230.40;2252.80
66827;DHT22;53727;45.242;19.796;2022-11-15T04:41:34;230.50;2252.80
66827;DHT22;53727;45.242;19.796;2022-11-15T04:44:00;230.50;2252.80
66827;DHT22;53727;45.242;19.796;2022-11-15T04:46:26;230.40;2252.80
66827;DHT22;53727;45.242;19.796;2022-11-15T04:48:52;205.70;2252.80
66827;DHT22;53727;45.242;19.796;2022-11-15T04:51:18;205.60;2252.80
66827;DHT22;53727;45.242;19.796;2022-11-15T04:53:44;205.70;2252.80
66827;DHT22;53727;45.242;19.796;2022-11-15T04:56:10;205.70;2252.80
66827;DHT22;53727;45.242;19.796;2022-11-15T04:58:36;205.60;2252.80
66827;DHT22;53727;45.242;19.796;2022-11-15T05:01:12;205.60;2252.80
66827;DHT22;53727;45.242;19.796;2022-11-15T05:03:40;205.60;2252.80
66827;DHT22;53727;45.242;19.796;2022-11-15T05:06:25;205.60;2252.80
66827;DHT22;53727;45.242;19.796;2022-11-15T05:08:51;205.70;2252.80
66827;DHT22;53727;45.242;19.796;2022-11-15T05:11:16;205.70;2252.80
66827;DHT22;53727;45.242;19.796;2022-11-15T05:13:42;205.60;2252.80
66827;DHT22;53727;45.242;19.796;2022-11-15T05:16:08;205.50;2252.80
66827;DHT22;53727;45.242;19.796;2022-11-15T05:18:34;205.40;2252.80
66827;DHT22;53727;45.242;19.796;2022-11-15T05:21:04;205.50;2252.80
66827;DHT22;53727;45.242;19.796;2022-11-15T05:23:30;205.60;2252.80
66827;DHT22;53727;45.242;19.796;2022-11-15T05:25:59;205.60;2252.80
66827;DHT22;53727;45.242;19.796;2022-11-15T05:28:25;205.60;2252.80
66827;DHT22;53727;45.242;19.796;2022-11-15T05:30:51;205.70;2252.80
66827;DHT22;53727;45.242;19.796;2022-11-15T05:33:17;230.40;2252.80
66827;DHT22;53727;45.242;19.796;2022-11-15T05:35:48;230.50;2252.80
66827;DHT22;53727;45.242;19.796;2022-11-15T05:38:16;230.60;2252.80
66827;DHT22;53727;45.242;19.796;2022-11-15T05:40:42;230.60;2252.80
66827;DHT22;53727;45.242;19.796;2022-11-15T05:43:09;230.60;2252.80
66827;DHT22;53727;45.242;19.796;2022-11-15T05:45:36;230.70;2252.80
66827;DHT22;53727;45.242;19.796;2022-11-15T05:48:05;230.70;2252.80
66827;DHT22;53727;45.242;19.796;2022-11-15T05:50:32;230.80;2252.80
66827;DHT22;53727;45.242;19.796;2022-11-15T05:52:59;230.80;2252.80
66827;DHT22;53727;45.242;19.796;2022-11-15T05:55:25;230.80;2252.80
66827;DHT22;53727;45.242;19.796;2022-11-15T05:57:50;230.90;2252.80
66827;DHT22;53727;45.242;19.796;2022-11-15T06:00:16;230.90;2252.80
66827;DHT22;53727;45.242;19.796;2022-11-15T06:02:42;230.80;2252.80
66827;DHT22;53727;45.242;19.796;2022-11-15T06:05:08;230.90;2252.80
66827;DHT22;53727;45.242;19.796;2022-11-15T06:07:33;230.90;2252.80
66827;DHT22;53727;45.242;19.796;2022-11-15T06:09:59;231.00;2252.80
66827;DHT22;53727;45.242;19.796;2022-11-15T06:12:25;231.00;2252.80
66827;DHT22;53727;45.242;19.796;2022-11-15T06:14:51;231.00;2252.80
66827;DHT22;53727;45.242;19.796;2022-11-15T06:17:16;230.90;2252.80
66827;DHT22;53727;45.242;19.796;2022-11-15T06:19:42;230.70;2252.80
66827;DHT22;53727;45.242;19.796;2022-11-15T06:22:08;230.80;2252.80
66827;DHT22;53727;45.242;19.796;2022-11-15T06:24:35;230.90;2252.80
66827;DHT22;53727;45.242;19.796;2022-11-15T06:27:00;231.00;2252.80
66827;DHT22;53727;45.242;19.796;2022-11-15T06:29:26;231.10;2252.80
66827;DHT22;53727;45.242;19.796;2022-11-15T06:31:51;231.10;2252.80
66827;DHT22;53727;45.242;19.796;2022-11-15T06:34:18;231.10;2252.80
66827;DHT22;53727;45.242;19.796;2022-11-15T06:36:44;231.20;2252.80
66827;DHT22;53727;45.242;19.796;2022-11-15T06:39:09;231.30;2252.80
66827;DHT22;53727;45.242;19.796;2022-11-15T06:41:35;256.00;2252.80
66827;DHT22;53727;45.242;19.796;2022-11-15T06:44:02;256.00;2252.80
66827;DHT22;53727;45.242;19.796;2022-11-15T06:46:28;256.10;2252.80
66827;DHT22;53727;45.242;19.796;2022-11-15T06:48:54;256.00;2252.80
66827;DHT22;53727;45.242;19.796;2022-11-15T06:51:20;256.00;2252.80
66827;DHT22;53727;45.242;19.796;2022-11-15T06:53:45;231.30;2252.80
66827;DHT22;53727;45.242;19.796;2022-11-15T06:56:11;231.30;2252.80
66827;DHT22;53727;45.242;19.796;2022-11-15T06:58:37;256.00;2252.80
66827;DHT22;53727;45.242;19.796;2022-11-15T07:01:08;256.10;2252.80
66827;DHT22;53727;45.242;19.796;2022-11-15T07:03:35;256.20;2252.80
66827;DHT22;53727;45.242;19.796;2022-11-15T07:06:01;231.30;2252.80
66827;DHT22;53727;45.242;19.796;2022-11-15T07:08:28;231.30;2252.80
66827;DHT22;53727;45.242;19.796;2022-11-15T07:10:57;231.20;2252.80
66827;DHT22;53727;45.242;19.796;2022-11-15T07:13:27;231.10;2252.80
66827;DHT22;53727;45.242;19.796;2022-11-15T07:15:53;231.10;2252.80
66827;DHT22;53727;45.242;19.796;2022-11-15T07:18:19;231.00;2252.80
66827;DHT22;53727;45.242;19.796;2022-11-15T07:20:45;231.10;2252.80
66827;DHT22;53727;45.242;19.796;2022-11-15T07:23:10;231.10;2252.80
66827;DHT22;53727;45.242;19.796;2022-11-15T07:25:36;231.20;2252.80
66827;DHT22;53727;45.242;19.796;2022-11-15T07:28:02;231.30;2252.80
66827;DHT22;53727;45.242;19.796;2022-11-15T07:30:28;256.10;2252.80
66827;DHT22;53727;45.242;19.796;2022-11-15T07:32:58;256.00;2252.80
66827;DHT22;53727;45.242;19.796;2022-11-15T07:35:25;256.30;2252.80
66827;DHT22;53727;45.242;19.796;2022-11-15T07:37:59;256.20;2252.80
66827;DHT22;53727;45.242;19.796;2022-11-15T07:40:30;256.30;2252.80
66827;DHT22;53727;45.242;19.796;2022-11-15T07:43:00;256.20;2252.80
66827;DHT22;53727;45.242;19.796;2022-11-15T07:45:26;256.00;2252.80
66827;DHT22;53727;45.242;19.796;2022-11-15T07:47:52;256.00;2252.80
66827;DHT22;53727;45.242;19.796;2022-11-15T07:50:18;231.30;2252.80
66827;DHT22;53727;45.242;19.796;2022-11-15T07:52:44;231.30;2252.80
66827;DHT22;53727;45.242;19.796;2022-11-15T07:55:10;256.00;2252.80
66827;DHT22;53727;45.242;19.796;2022-11-15T07:57:36;256.10;2252.80
66827;DHT22;53727;45.242;19.796;2022-11-15T08:00:04;256.20;2252.80
66827;DHT22;53727;45.242;19.796;2022-11-15T08:02:30;256.30;2252.80
66827;DHT22;53727;45.242;19.796;2022-11-15T08:04:55;256.10;2252.80
66827;DHT22;53727;45.242;19.796;2022-11-15T08:07:21;256.00;2252.80
66827;DHT22;53727;45.242;19.796;2022-11-15T08:09:47;256.00;2252.80
66827;DHT22;53727;45.242;19.796;2022-11-15T08:12:12;256.10;2252.80
66827;DHT22;53727;45.242;19.796;2022-11-15T08:14:39;256.30;2252.80
66827;DHT22;53727;45.242;19.796;2022-11-15T08:17:05;256.30;2252.80
66827;DHT22;53727;45.242;19.796;2022-11-15T08:19:30;256.40;2252.80
66827;DHT22;53727;45.242;19.796;2022-11-15T08:21:56;256.40;2252.80
66827;DHT22;53727;45.242;19.796;2022-11-15T08:24:22;256.40;2252.80
66827;DHT22;53727;45.242;19.796;2022-11-15T08:26:47;256.40;2252.80
66827;DHT22;53727;45.242;19.796;2022-11-15T08:29:13;256.60;2252.80
66827;DHT22;53727;45.242;19.796;2022-11-15T08:31:39;256.70;2252.80
66827;DHT22;53727;45.242;19.796;2022-11-15T08:34:05;256.60;2252.80
66827;DHT22;53727;45.242;19.796;2022-11-15T08:36:31;256.50;2252.80
66827;DHT22;53727;45.242;19.796;2022-11-15T08:38:57;256.50;2252.80
66827;DHT22;53727;45.242;19.796;2022-11-15T08:41:32;256.70;2252.80
66827;DHT22;53727;45.242;19.796;2022-11-15T08:43:59;256.80;2252.80
66827;DHT22;53727;45.242;19.796;2022-11-15T08:46:25;256.80;2252.80
66827;DHT22;53727;45.242;19.796;2022-11-15T08:48:50;281.60;2278.40
66827;DHT22;53727;45.242;19.796;2022-11-15T08:51:16;281.70;2278.40
66827;DHT22;53727;45.242;19.796;2022-11-15T08:53:42;281.70;2278.40
66827;DHT22;53727;45.242;19.796;2022-11-15T08:56:10;256.90;2252.80
66827;DHT22;53727;45.242;19.796;2022-11-15T08:58:36;281.60;2278.40
66827;DHT22;53727;45.242;19.796;2022-11-15T09:01:02;256.90;2252.80
66827;DHT22;53727;45.242;19.796;2022-11-15T09:03:28;281.70;2278.40
66827;DHT22;53727;45.242;19.796;2022-11-15T09:05:59;281.80;2278.40
66827;DHT22;53727;45.242;19.796;2022-11-15T09:13:17;282.40;2278.40
66827;DHT22;53727;45.242;19.796;2022-11-15T09:15:43;282.30;2278.40
66827;DHT22;53727;45.242;19.796;2022-11-15T09:18:09;282.30;2278.40
66827;DHT22;53727;45.242;19.796;2022-11-15T09:20:34;282.40;2278.40
66827;DHT22;53727;45.242;19.796;2022-11-15T09:23:01;282.50;2278.40
66827;DHT22;53727;45.242;19.796;2022-11-15T09:25:28;307.20;2304.00
66827;DHT22;53727;45.242;19.796;2022-11-15T09:27:53;282.50;2278.40
66827;DHT22;53727;45.242;19.796;2022-11-15T09:30:19;282.40;2278.40
66827;DHT22;53727;45.242;19.796;2022-11-15T09:32:45;282.40;2278.40
66827;DHT22;53727;45.242;19.796;2022-11-15T09:35:10;282.50;2278.40
66827;DHT22;53727;45.242;19.796;2022-11-15T09:37:36;307.20;2304.00
66827;DHT22;53727;45.242;19.796;2022-11-15T09:40:03;307.30;2304.00
66827;DHT22;53727;45.242;19.796;2022-11-15T09:45:37;307.20;2304.00
66827;DHT22;53727;45.242;19.796;2022-11-15T09:50:54;307.20;2304.00
66827;DHT22;53727;45.242;19.796;2022-11-15T09:53:42;307.50;2304.00
66827;DHT22;53727;45.242;19.796;2022-11-15T09:56:22;307.60;2304.00
66827;DHT22;53727;45.242;19.796;2022-11-15T09:59:02;307.60;2304.00
66827;DHT22;53727;45.242;19.796;2022-11-15T10:01:54;307.50;2304.00
66827;DHT22;53727;45.242;19.796;2022-11-15T10:04:24;307.50;2304.00
66827;DHT22;53727;45.242;19.796;2022-11-15T10:07:02;307.60;2304.00
66827;DHT22;53727;45.242;19.796;2022-11-15T10:12:19;307.90;2304.00
66827;DHT22;53727;45.242;19.796;2022-11-15T10:14:46;308.10;2304.00
66827;DHT22;53727;45.242;19.796;2022-11-15T10:20:27;308.00;2304.00
66827;DHT22;53727;45.242;19.796;2022-11-15T10:22:56;308.10;2304.00
66827;DHT22;53727;45.242;19.796;2022-11-15T10:42:42;333.30;2329.60
66827;DHT22;53727;45.242;19.796;2022-11-15T10:45:29;333.30;2329.60
66827;DHT22;53727;45.242;19.796;2022-11-15T10:50:45;333.20;2329.60
66827;DHT22;53727;45.242;19.796;2022-11-15T10:55:48;333.00;2329.60
66827;DHT22;53727;45.242;19.796;2022-11-15T10:58:41;333.10;2329.60
66827;DHT22;53727;45.242;19.796;2022-11-15T11:01:13;333.00;2329.60
66827;DHT22;53727;45.242;19.796;2022-11-15T11:03:41;332.90;2329.60
66827;DHT22;53727;45.242;19.796;2022-11-15T11:06:16;332.90;2329.60
66827;DHT22;53727;45.242;19.796;2022-11-15T11:11:23;332.80;2329.60
66827;DHT22;53727;45.242;19.796;2022-11-15T11:13:49;308.10;2304.00
66827;DHT22;53727;45.242;19.796;2022-11-15T11:18:57;308.10;2304.00
66827;DHT22;53727;45.242;19.796;2022-11-15T11:21:43;332.80;2329.60
66827;DHT22;53727;45.242;19.796;2022-11-15T11:24:14;332.90;2329.60
66827;DHT22;53727;45.242;19.796;2022-11-15T11:29:32;333.00;2329.60
66827;DHT22;53727;45.242;19.796;2022-11-15T11:32:16;333.10;2329.60
66827;DHT22;53727;45.242;19.796;2022-11-15T11:35:45;333.10;2329.60
66827;DHT22;53727;45.242;19.796;2022-11-15T11:52:10;358.50;2329.60
66827;DHT22;53727;45.242;19.796;2022-11-15T11:57:42;358.70;2329.60
66827;DHT22;53727;45.242;19.796;2022-11-15T12:00:20;359.10;2329.60
66827;DHT22;53727;45.242;19.796;2022-11-15T12:05:38;384.30;2329.60
66827;DHT22;53727;45.242;19.796;2022-11-15T12:51:17;359.20;2329.60
66827;DHT22;53727;45.242;19.796;2022-11-15T12:53:42;359.20;2329.60
66827;DHT22;53727;45.242;19.796;2022-11-15T12:56:18;359.00;2329.60
66827;DHT22;53727;45.242;19.796;2022-11-15T12:58:57;359.10;2329.60
66827;DHT22;53727;45.242;19.796;2022-11-15T13:06:54;384.10;2329.60
66827;DHT22;53727;45.242;19.796;2022-11-15T13:55:21;486.80;2380.80
66827;DHT22;53727;45.242;19.796;2022-11-15T19:50:50;282.50;2278.40
66827;DHT22;53727;45.242;19.796;2022-11-15T19:53:16;282.20;2278.40
66827;DHT22;53727;45.242;19.796;2022-11-15T19:55:56;282.20;2278.40
66827;DHT22;53727;45.242;19.796;2022-11-15T19:58:22;282.20;2278.40
66827;DHT22;53727;45.242;19.796;2022-11-15T20:00:49;282.00;2278.40
66827;DHT22;53727;45.242;19.796;2022-11-15T20:03:15;282.00;2278.40
66827;DHT22;53727;45.242;19.796;2022-11-15T21:24:22;281.80;2278.40
66827;DHT22;53727;45.242;19.796;2022-11-15T21:26:52;281.60;2278.40
66827;DHT22;53727;45.242;19.796;2022-11-15T21:29:18;281.70;2278.40
66827;DHT22;53727;45.242;19.796;2022-11-15T21:31:48;281.70;2278.40
66827;DHT22;53727;45.242;19.796;2022-11-15T21:34:14;281.70;2278.40
66827;DHT22;53727;45.242;19.796;2022-11-15T21:36:40;281.70;2278.40
66827;DHT22;53727;45.242;19.796;2022-11-15T21:39:06;282.10;2278.40
66827;DHT22;53727;45.242;19.796;2022-11-15T21:41:32;282.00;2278.40
66827;DHT22;53727;45.242;19.796;2022-11-15T21:43:59;282.10;2278.40
